Time;durP1;ratioP1;P1;durP2;ratioP2;P2;SDS_P1;SDS_P2;PMS_P1;PMS_P2;Temp;Humidity;BMP_temperature;BMP_pressure;BME280_temperature;BME280_humidity;BME280_pressure;Samples;Min_cycle;Max_cycle;Signal;HPM_P1;HPM_P2
2021/12/09 00:01:21;;;;;;;16.05;8.82;;;2.40;99.90;;;;;;5014518;28;20449;-37
2021/12/09 00:03:48;;;;;;;16.08;8.73;;;2.50;99.90;;;;;;4989241;28;20066;-37
2021/12/09 00:06:15;;;;;;;21.55;8.85;;;2.50;99.90;;;;;;5013656;28;20487;-37
2021/12/09 00:08:42;;;;;;;20.13;8.98;;;2.50;99.90;;;;;;5015359;28;20085;-36
2021/12/09 00:11:11;;;;;;;18.92;9.65;;;2.50;99.90;;;;;;5015746;28;20471;-37
2021/12/09 00:13:38;;;;;;;16.85;8.52;;;2.50;99.90;;;;;;4997550;28;20058;-39
2021/12/09 00:16:05;;;;;;;18.83;8.90;;;2.50;99.90;;;;;;5018839;28;20041;-39
2021/12/09 00:18:32;;;;;;;24.40;9.35;;;2.50;99.90;;;;;;5024277;28;20125;-37
2021/12/09 00:20:59;;;;;;;20.42;8.80;;;2.50;99.90;;;;;;4998237;28;20085;-36
2021/12/09 00:23:26;;;;;;;18.08;9.15;;;2.50;99.90;;;;;;5014688;28;20096;-37
2021/12/09 00:25:54;;;;;;;24.65;10.18;;;2.50;99.90;;;;;;4998032;28;20089;-37
2021/12/09 00:28:22;;;;;;;17.77;9.43;;;2.50;99.90;;;;;;4998394;28;20056;-39
2021/12/09 00:30:49;;;;;;;20.23;9.70;;;2.50;99.90;;;;;;5018151;28;20049;-36
2021/12/09 00:33:16;;;;;;;25.33;9.93;;;2.50;99.90;;;;;;4991540;28;20591;-37
2021/12/09 00:35:47;;;;;;;22.13;9.35;;;2.60;99.90;;;;;;4995976;28;20082;-37
2021/12/09 00:38:22;;;;;;;26.50;9.70;;;2.50;99.90;;;;;;5015097;28;20050;-38
2021/12/09 00:40:50;;;;;;;21.83;10.38;;;2.50;99.90;;;;;;5015830;28;20383;-37
2021/12/09 00:43:20;;;;;;;19.30;10.30;;;2.50;99.90;;;;;;5011579;28;20064;-37
2021/12/09 00:45:48;;;;;;;18.95;9.32;;;2.50;99.90;;;;;;5015093;28;20072;-39
2021/12/09 00:48:15;;;;;;;22.35;9.52;;;2.50;99.90;;;;;;5007777;28;20056;-37
2021/12/09 00:50:42;;;;;;;21.25;9.93;;;2.50;99.90;;;;;;4997305;28;20049;-37
2021/12/09 00:53:09;;;;;;;25.23;10.18;;;2.50;99.90;;;;;;4995151;28;20093;-36
2021/12/09 00:55:36;;;;;;;21.45;10.27;;;2.50;99.90;;;;;;4997743;28;20404;-37
2021/12/09 00:58:03;;;;;;;21.50;9.63;;;2.40;99.90;;;;;;4991989;28;20054;-37
2021/12/09 01:00:31;;;;;;;24.10;10.00;;;2.40;99.90;;;;;;4995380;28;20050;-37
2021/12/09 01:03:00;;;;;;;16.85;9.77;;;2.40;99.90;;;;;;4992176;28;20056;-37
2021/12/09 01:05:27;;;;;;;21.65;10.38;;;2.40;99.90;;;;;;5022281;28;20053;-39
2021/12/09 01:07:54;;;;;;;20.27;10.13;;;2.30;99.90;;;;;;5020542;28;20108;-37
2021/12/09 01:10:21;;;;;;;20.02;10.07;;;2.30;99.90;;;;;;5014139;28;20472;-37
2021/12/09 01:12:48;;;;;;;23.23;9.48;;;2.30;99.90;;;;;;4996359;28;20082;-38
2021/12/09 01:15:16;;;;;;;27.83;10.60;;;2.20;99.90;;;;;;5012338;28;20056;-36
2021/12/09 01:17:43;;;;;;;21.45;10.48;;;2.20;99.90;;;;;;5014206;28;20073;-37
2021/12/09 01:20:12;;;;;;;19.25;10.27;;;2.10;99.90;;;;;;5014214;28;20056;-37
2021/12/09 01:22:40;;;;;;;18.05;10.02;;;2.10;99.90;;;;;;5015043;28;20147;-37
2021/12/09 01:25:08;;;;;;;26.35;10.60;;;2.10;99.90;;;;;;5014015;28;20057;-37
2021/12/09 01:27:37;;;;;;;19.65;10.05;;;2.00;99.90;;;;;;4996720;28;20076;-38
2021/12/09 01:30:09;;;;;;;23.10;10.07;;;2.10;99.90;;;;;;4983654;28;20081;-37
2021/12/09 01:32:36;;;;;;;24.77;10.63;;;2.00;99.90;;;;;;4996115;28;20058;-37
2021/12/09 01:35:03;;;;;;;24.52;11.15;;;2.00;99.90;;;;;;4992052;28;20092;-37
2021/12/09 01:37:31;;;;;;;25.42;10.27;;;2.00;99.90;;;;;;5011731;28;20147;-37
2021/12/09 01:39:58;;;;;;;25.20;10.70;;;2.00;99.90;;;;;;5014146;28;20569;-37
2021/12/09 01:42:25;;;;;;;14.98;9.52;;;2.00;99.90;;;;;;5012745;28;20121;-37
2021/12/09 01:44:52;;;;;;;22.05;9.88;;;2.10;99.90;;;;;;5013346;28;20050;-37
2021/12/09 01:47:19;;;;;;;29.27;10.60;;;2.10;99.90;;;;;;5013553;28;20056;-38
2021/12/09 01:49:46;;;;;;;27.63;9.90;;;2.00;99.90;;;;;;5013580;28;20078;-37
2021/12/09 01:52:13;;;;;;;17.90;9.15;;;2.00;99.90;;;;;;5013808;28;20064;-37
2021/12/09 01:54:41;;;;;;;20.52;10.15;;;2.00;99.90;;;;;;5012021;28;20529;-37
2021/12/09 01:57:09;;;;;;;16.60;9.55;;;2.00;99.90;;;;;;4994139;28;20066;-37
2021/12/09 01:59:36;;;;;;;23.55;10.38;;;1.90;99.90;;;;;;4996599;28;20133;-38
2021/12/09 02:02:03;;;;;;;18.08;10.43;;;1.90;99.90;;;;;;5008566;28;20050;-38
2021/12/09 02:04:30;;;;;;;23.17;11.13;;;1.90;99.90;;;;;;4992764;28;20050;-37
2021/12/09 02:06:57;;;;;;;19.95;10.60;;;1.90;99.90;;;;;;4996073;28;20089;-37
2021/12/09 02:09:24;;;;;;;22.02;10.52;;;1.90;99.90;;;;;;4995150;28;20069;-37
2021/12/09 02:11:55;;;;;;;20.27;10.57;;;1.90;99.90;;;;;;5020237;28;20379;-37
2021/12/09 02:14:22;;;;;;;23.90;10.57;;;1.90;99.90;;;;;;5029913;28;20049;-37
2021/12/09 02:16:49;;;;;;;25.30;10.98;;;1.90;99.90;;;;;;5013013;28;20052;-37
2021/12/09 02:19:16;;;;;;;26.73;11.70;;;1.90;99.90;;;;;;5013391;28;20125;-37
2021/12/09 02:21:45;;;;;;;18.30;10.77;;;1.80;99.90;;;;;;4995944;28;20085;-38
2021/12/09 02:24:14;;;;;;;25.67;11.63;;;1.80;99.90;;;;;;5004988;28;20110;-37
2021/12/09 02:26:42;;;;;;;22.60;10.95;;;1.80;99.90;;;;;;5013301;28;20054;-37
2021/12/09 02:29:10;;;;;;;20.98;11.27;;;1.80;99.90;;;;;;4987172;28;20058;-37
2021/12/09 02:31:38;;;;;;;19.50;10.85;;;1.90;99.90;;;;;;5014837;28;20047;-37
2021/12/09 02:34:05;;;;;;;25.27;11.45;;;1.90;99.90;;;;;;5013307;28;20056;-37
2021/12/09 02:36:36;;;;;;;26.48;10.68;;;1.80;99.90;;;;;;4995166;28;20046;-37
2021/12/09 02:39:05;;;;;;;23.35;11.20;;;1.80;99.90;;;;;;5013395;28;20054;-37
2021/12/09 02:41:33;;;;;;;24.38;10.88;;;1.80;99.90;;;;;;4992042;28;20128;-36
2021/12/09 02:44:03;;;;;;;21.55;11.50;;;1.80;99.90;;;;;;5011308;28;20057;-37
2021/12/09 02:46:34;;;;;;;20.95;11.52;;;1.80;99.90;;;;;;4995566;28;20150;-38
2021/12/09 02:49:02;;;;;;;25.73;11.25;;;1.80;99.90;;;;;;4995233;28;20124;-37
2021/12/09 02:51:29;;;;;;;26.10;12.30;;;1.80;99.90;;;;;;4996953;28;20065;-37
2021/12/09 02:53:56;;;;;;;25.55;12.85;;;1.80;99.90;;;;;;4994894;28;20058;-37
2021/12/09 02:56:24;;;;;;;22.65;11.38;;;1.80;99.90;;;;;;5002451;28;20099;-37
2021/12/09 02:58:51;;;;;;;23.13;12.20;;;1.80;99.90;;;;;;5020099;28;20414;-38
2021/12/09 03:01:20;;;;;;;26.00;12.57;;;1.80;99.90;;;;;;4992575;28;20085;-37
2021/12/09 03:03:50;;;;;;;23.00;12.40;;;1.80;99.90;;;;;;5011869;28;20128;-37
2021/12/09 03:06:17;;;;;;;30.80;12.90;;;1.80;99.90;;;;;;5011541;28;20397;-37
2021/12/09 03:08:44;;;;;;;27.25;12.25;;;1.80;99.90;;;;;;5012569;28;20529;-37
2021/12/09 03:11:12;;;;;;;27.17;12.18;;;1.80;99.90;;;;;;5011677;28;20053;-37
2021/12/09 03:13:42;;;;;;;29.15;12.40;;;1.80;99.90;;;;;;5011899;28;20100;-37
2021/12/09 03:16:09;;;;;;;26.20;12.30;;;1.80;99.90;;;;;;4994412;28;20123;-37
2021/12/09 03:18:39;;;;;;;28.42;13.07;;;1.80;99.90;;;;;;4995141;28;20081;-38
2021/12/09 03:21:15;;;;;;;23.08;11.32;;;1.80;99.90;;;;;;5003746;28;20078;-37
2021/12/09 03:23:42;;;;;;;29.52;13.13;;;1.80;99.90;;;;;;4994483;28;20081;-37
2021/12/09 03:26:09;;;;;;;27.10;12.55;;;1.80;99.90;;;;;;4994368;28;20165;-37
2021/12/09 03:28:36;;;;;;;22.85;12.82;;;1.70;99.90;;;;;;5005375;28;20041;-37
2021/12/09 03:31:04;;;;;;;27.85;12.60;;;1.70;99.90;;;;;;4997282;28;20128;-37
2021/12/09 03:33:31;;;;;;;24.42;13.30;;;1.80;99.90;;;;;;5028698;28;20047;-37
2021/12/09 03:35:59;;;;;;;25.30;13.32;;;1.70;99.90;;;;;;4975960;28;20172;-37
2021/12/09 03:38:26;;;;;;;23.58;13.15;;;1.70;99.90;;;;;;4991187;28;20053;-37
2021/12/09 03:40:53;;;;;;;25.65;12.13;;;1.80;99.90;;;;;;5002686;28;20078;-37
2021/12/09 03:43:20;;;;;;;22.17;12.38;;;1.80;99.90;;;;;;5001266;28;20052;-37
2021/12/09 03:45:47;;;;;;;26.83;13.60;;;1.70;99.90;;;;;;4994784;28;20514;-39
2021/12/09 03:48:15;;;;;;;24.27;13.85;;;1.70;99.90;;;;;;5030399;28;20052;-37
2021/12/09 03:50:43;;;;;;;25.00;13.40;;;1.70;99.90;;;;;;5014385;28;20395;-37
2021/12/09 03:53:10;;;;;;;28.00;14.13;;;1.70;99.90;;;;;;5012411;28;20426;-37
2021/12/09 03:55:37;;;;;;;25.27;13.45;;;1.70;99.90;;;;;;5012042;28;20060;-37
2021/12/09 03:58:04;;;;;;;35.13;15.02;;;1.70;99.90;;;;;;4989271;28;20053;-37
2021/12/09 04:00:31;;;;;;;29.23;13.35;;;1.70;99.90;;;;;;4999817;28;20086;-37
2021/12/09 04:02:58;;;;;;;27.45;13.10;;;1.60;99.90;;;;;;5009883;28;20050;-37
2021/12/09 04:05:27;;;;;;;28.52;13.70;;;1.60;99.90;;;;;;5026773;28;20176;-37
2021/12/09 04:07:54;;;;;;;33.08;13.90;;;1.60;99.90;;;;;;5011438;28;20058;-37
2021/12/09 04:10:21;;;;;;;29.38;13.63;;;1.60;99.90;;;;;;4991375;28;20089;-37
2021/12/09 04:12:48;;;;;;;34.83;14.23;;;1.60;99.90;;;;;;4976460;28;20141;-37
2021/12/09 04:15:15;;;;;;;30.80;14.15;;;1.60;99.90;;;;;;5009002;28;20566;-37
2021/12/09 04:17:42;;;;;;;26.95;14.45;;;1.60;99.90;;;;;;4994597;28;20133;-38
2021/12/09 04:20:10;;;;;;;24.08;12.95;;;1.60;99.90;;;;;;4992574;28;20137;-37
2021/12/09 04:22:39;;;;;;;28.45;13.88;;;1.60;99.90;;;;;;5012294;28;20081;-38
2021/12/09 04:25:06;;;;;;;28.13;13.73;;;1.50;99.90;;;;;;5011533;28;20056;-38
2021/12/09 04:27:33;;;;;;;24.92;13.75;;;1.50;99.90;;;;;;4995367;28;20490;-37
2021/12/09 04:30:00;;;;;;;28.83;14.77;;;1.50;99.90;;;;;;4988882;28;20086;-37
2021/12/09 04:32:27;;;;;;;27.00;14.18;;;1.50;99.90;;;;;;5000944;28;20053;-37
2021/12/09 04:34:56;;;;;;;30.20;14.63;;;1.50;99.90;;;;;;4996959;28;20506;-37
2021/12/09 04:37:23;;;;;;;28.80;14.00;;;1.50;99.90;;;;;;5011830;28;20540;-37
2021/12/09 04:39:52;;;;;;;26.85;14.20;;;1.50;99.90;;;;;;5012410;28;20213;-37
2021/12/09 04:42:19;;;;;;;23.52;14.20;;;1.50;99.90;;;;;;5021643;28;20053;-37
2021/12/09 04:44:46;;;;;;;27.55;14.93;;;1.50;99.90;;;;;;4989897;28;20462;-38
2021/12/09 04:47:13;;;;;;;28.17;13.70;;;1.50;99.90;;;;;;5003759;28;20093;-37
2021/12/09 04:49:40;;;;;;;28.75;14.32;;;1.50;99.90;;;;;;4986786;28;20085;-37
2021/12/09 04:52:07;;;;;;;24.58;14.13;;;1.50;99.90;;;;;;4982152;28;20100;-39
2021/12/09 04:54:36;;;;;;;25.85;14.55;;;1.50;99.90;;;;;;4986931;28;20050;-37
2021/12/09 04:57:05;;;;;;;25.45;14.13;;;1.50;99.90;;;;;;4993056;28;20060;-37
2021/12/09 04:59:32;;;;;;;31.80;15.07;;;1.50;99.90;;;;;;5008182;28;20112;-37
2021/12/09 05:01:59;;;;;;;30.02;14.98;;;1.50;99.90;;;;;;4990673;28;20502;-38
2021/12/09 05:04:27;;;;;;;22.92;13.90;;;1.50;99.90;;;;;;5003681;28;20058;-37
2021/12/09 05:06:54;;;;;;;26.15;14.55;;;1.40;99.90;;;;;;4996373;28;20394;-37
2021/12/09 05:09:22;;;;;;;28.25;13.93;;;1.40;99.90;;;;;;4996208;28;20053;-37
2021/12/09 05:11:49;;;;;;;29.95;15.00;;;1.40;99.90;;;;;;4997031;28;20081;-39
2021/12/09 05:14:18;;;;;;;24.73;14.43;;;1.30;99.90;;;;;;5014460;28;20050;-37
2021/12/09 05:16:45;;;;;;;31.55;15.52;;;1.30;99.90;;;;;;5001750;28;20068;-39
2021/12/09 05:19:12;;;;;;;30.02;16.17;;;1.30;99.90;;;;;;5013385;28;20050;-37
2021/12/09 05:21:39;;;;;;;29.10;15.07;;;1.30;99.90;;;;;;4992545;28;20062;-37
2021/12/09 05:24:07;;;;;;;29.92;15.95;;;1.30;99.90;;;;;;4996826;28;20049;-37
2021/12/09 05:26:40;;;;;;;34.13;16.13;;;1.30;99.90;;;;;;4996217;28;20457;-37
2021/12/09 05:29:07;;;;;;;28.25;15.50;;;1.20;99.90;;;;;;4995788;28;20553;-37
2021/12/09 05:34:20;;;;;;;30.42;15.05;;;1.20;99.90;;;;;;5010849;28;20490;-37
2021/12/09 05:36:47;;;;;;;35.90;15.80;;;1.20;99.90;;;;;;4998463;28;20112;-37
2021/12/09 05:39:15;;;;;;;33.08;16.63;;;1.20;99.90;;;;;;4999320;28;20506;-37
2021/12/09 05:41:42;;;;;;;31.17;15.07;;;1.20;99.90;;;;;;5008922;28;20109;-37
2021/12/09 05:44:09;;;;;;;27.50;15.52;;;1.20;99.90;;;;;;4988329;28;20107;-37
2021/12/09 05:46:39;;;;;;;31.10;15.05;;;1.20;99.90;;;;;;5007234;28;20082;-37
2021/12/09 05:49:06;;;;;;;28.50;17.00;;;1.30;99.90;;;;;;5009835;28;20120;-38
2021/12/09 05:51:33;;;;;;;34.15;15.93;;;1.20;99.90;;;;;;5013053;28;20057;-36
2021/12/09 05:54:00;;;;;;;32.42;15.27;;;1.20;99.90;;;;;;5000466;28;20092;-37
2021/12/09 05:56:27;;;;;;;35.80;16.13;;;1.20;99.90;;;;;;5019000;28;20465;-36
2021/12/09 05:58:54;;;;;;;34.95;15.40;;;1.20;99.90;;;;;;4995822;28;20046;-37
2021/12/09 06:01:25;;;;;;;35.15;16.52;;;1.10;99.90;;;;;;4990151;28;20482;-36
2021/12/09 06:03:53;;;;;;;33.78;17.33;;;1.10;99.90;;;;;;4988470;28;20089;-39
2021/12/09 06:06:20;;;;;;;31.17;15.25;;;1.10;99.90;;;;;;4994897;28;20058;-36
2021/12/09 06:08:47;;;;;;;32.40;16.35;;;1.10;99.90;;;;;;5012624;28;20141;-36
2021/12/09 06:11:14;;;;;;;28.38;15.32;;;1.10;99.90;;;;;;4996006;28;20045;-36
2021/12/09 06:13:41;;;;;;;29.00;15.48;;;1.10;99.90;;;;;;4994684;28;20054;-37
2021/12/09 06:16:09;;;;;;;35.42;15.65;;;1.00;99.90;;;;;;4993474;28;20057;-37
2021/12/09 06:18:36;;;;;;;29.52;14.98;;;1.00;99.90;;;;;;4993714;28;20093;-37
2021/12/09 06:21:04;;;;;;;28.60;15.57;;;1.00;99.90;;;;;;4981460;28;21392;-37
2021/12/09 06:23:31;;;;;;;28.35;15.85;;;1.00;99.90;;;;;;4996823;28;20195;-37
2021/12/09 06:25:58;;;;;;;30.35;16.90;;;1.00;99.90;;;;;;5004324;28;20093;-37
2021/12/09 06:28:25;;;;;;;34.40;15.20;;;1.00;99.90;;;;;;4994312;28;20052;-38
2021/12/09 06:30:52;;;;;;;27.67;15.50;;;1.00;99.90;;;;;;5012482;28;20049;-39
2021/12/09 06:33:19;;;;;;;25.42;13.98;;;1.00;99.90;;;;;;5011252;28;20462;-38
2021/12/09 06:35:46;;;;;;;37.47;16.05;;;1.00;99.90;;;;;;5011468;28;20045;-38
2021/12/09 06:38:15;;;;;;;32.78;14.50;;;1.00;99.90;;;;;;4987183;28;20104;-38
2021/12/09 06:40:42;;;;;;;28.67;15.23;;;1.00;99.90;;;;;;4986743;28;20057;-37
2021/12/09 06:43:09;;;;;;;30.75;13.98;;;1.00;99.90;;;;;;5002851;28;20661;-37
2021/12/09 06:45:36;;;;;;;34.75;15.10;;;1.00;99.90;;;;;;4994392;28;20078;-37
2021/12/09 06:48:03;;;;;;;29.95;15.70;;;1.10;99.90;;;;;;5005337;28;20768;-38
2021/12/09 06:50:30;;;;;;;32.65;15.48;;;1.10;99.90;;;;;;5011867;28;20050;-37
2021/12/09 06:52:57;;;;;;;30.27;13.98;;;1.00;99.90;;;;;;4999267;28;20053;-36
2021/12/09 06:55:25;;;;;;;36.63;16.17;;;1.00;99.90;;;;;;4993189;28;20490;-38
2021/12/09 06:57:52;;;;;;;29.30;13.45;;;1.10;99.90;;;;;;5011504;28;20042;-36
2021/12/09 07:00:20;;;;;;;34.88;14.98;;;1.10;99.90;;;;;;5011002;28;20140;-36
2021/12/09 07:02:47;;;;;;;32.90;15.02;;;1.10;99.90;;;;;;5003855;28;20050;-37
2021/12/09 07:05:15;;;;;;;35.17;14.95;;;1.10;99.90;;;;;;4984505;28;20049;-43
2021/12/09 07:07:42;;;;;;;31.70;13.95;;;1.10;99.90;;;;;;4990810;28;20049;-36
2021/12/09 07:10:10;;;;;;;32.83;14.20;;;1.10;99.90;;;;;;5011416;28;20064;-37
2021/12/09 07:12:38;;;;;;;38.90;15.40;;;1.10;99.90;;;;;;5011143;28;20054;-37
2021/12/09 07:15:07;;;;;;;29.10;14.15;;;1.10;99.90;;;;;;5010439;28;20053;-39
2021/12/09 07:17:34;;;;;;;28.10;14.70;;;1.10;99.90;;;;;;5010182;28;20089;-35
2021/12/09 07:20:04;;;;;;;33.42;15.48;;;1.10;99.90;;;;;;5009474;28;20536;-39
2021/12/09 07:22:31;;;;;;;33.92;15.85;;;1.10;99.90;;;;;;5005150;28;20046;-38
2021/12/09 07:24:58;;;;;;;27.70;14.35;;;1.10;99.90;;;;;;5011001;28;20085;-35
2021/12/09 07:27:26;;;;;;;32.25;14.30;;;1.10;99.90;;;;;;5009083;28;20054;-36
2021/12/09 07:29:54;;;;;;;33.70;13.75;;;1.10;99.90;;;;;;4987215;28;20053;-36
2021/12/09 07:32:21;;;;;;;31.25;14.60;;;1.00;99.90;;;;;;5002828;28;20054;-36
2021/12/09 07:34:48;;;;;;;32.70;15.05;;;1.10;99.90;;;;;;4987563;28;20060;-37
2021/12/09 07:37:15;;;;;;;32.38;14.43;;;1.10;99.90;;;;;;4990301;28;20122;-37
2021/12/09 07:39:42;;;;;;;28.38;14.50;;;1.10;99.90;;;;;;4993327;28;20065;-36
2021/12/09 07:42:11;;;;;;;36.80;15.73;;;1.00;99.90;;;;;;4993304;28;20141;-36
2021/12/09 07:44:38;;;;;;;31.52;15.20;;;1.00;99.90;;;;;;4992969;28;20064;-36
2021/12/09 07:47:06;;;;;;;28.40;14.43;;;1.10;99.90;;;;;;4992999;28;20050;-40
2021/12/09 07:49:33;;;;;;;34.15;15.57;;;1.10;99.90;;;;;;5010995;28;20130;-37
2021/12/09 07:52:00;;;;;;;32.72;14.93;;;1.10;99.90;;;;;;5010055;28;20490;-36
2021/12/09 07:54:27;;;;;;;36.38;14.80;;;1.00;99.90;;;;;;5006420;28;20056;-36
2021/12/09 07:56:54;;;;;;;34.63;15.23;;;1.00;99.90;;;;;;5008470;28;20413;-37
2021/12/09 07:59:21;;;;;;;32.05;14.30;;;1.00;99.90;;;;;;5009990;28;20050;-36
2021/12/09 08:01:48;;;;;;;35.53;15.77;;;1.00;99.90;;;;;;5009226;28;20536;-36
2021/12/09 08:04:17;;;;;;;29.27;15.05;;;1.00;99.90;;;;;;5011110;28;20077;-37
2021/12/09 08:06:44;;;;;;;30.13;15.07;;;1.00;99.90;;;;;;5009686;28;20050;-38
2021/12/09 08:09:11;;;;;;;32.58;15.20;;;1.00;99.90;;;;;;5013875;28;20131;-36
2021/12/09 08:11:38;;;;;;;36.78;15.48;;;1.00;99.90;;;;;;5010787;28;20050;-39
2021/12/09 08:14:05;;;;;;;40.80;15.35;;;1.00;99.90;;;;;;5010100;28;20137;-41
2021/12/09 08:16:37;;;;;;;31.60;16.08;;;1.00;99.90;;;;;;5010467;28;20062;-36
2021/12/09 08:19:04;;;;;;;28.05;15.10;;;0.90;99.90;;;;;;4986605;28;20046;-37
2021/12/09 08:21:35;;;;;;;34.70;15.98;;;1.00;99.90;;;;;;5010638;28;20084;-37
2021/12/09 08:24:02;;;;;;;37.33;15.40;;;1.00;99.90;;;;;;4980381;28;20047;-36
2021/12/09 08:26:29;;;;;;;35.28;15.95;;;1.00;99.90;;;;;;5011644;28;20100;-42
2021/12/09 08:28:56;;;;;;;34.50;15.25;;;1.00;99.90;;;;;;4994754;28;20559;-37
2021/12/09 08:31:23;;;;;;;40.88;16.80;;;1.00;99.90;;;;;;5012452;28;20050;-36
2021/12/09 08:33:51;;;;;;;44.15;16.27;;;1.00;99.90;;;;;;4995713;28;20401;-36
2021/12/09 08:36:18;;;;;;;31.15;15.65;;;1.00;99.90;;;;;;4993489;28;20061;-39
2021/12/09 08:38:46;;;;;;;44.60;17.20;;;1.00;99.90;;;;;;4996048;28;20092;-36
2021/12/09 08:41:14;;;;;;;32.35;16.17;;;1.00;99.90;;;;;;4988725;28;20137;-36
2021/12/09 08:43:41;;;;;;;26.20;14.20;;;1.00;99.90;;;;;;4990043;28;20572;-36
2021/12/09 08:46:08;;;;;;;34.90;14.32;;;1.00;99.90;;;;;;4971012;28;20551;-36
2021/12/09 08:48:35;;;;;;;37.38;15.45;;;1.10;99.90;;;;;;4994812;28;20513;-35
2021/12/09 08:51:02;;;;;;;31.85;15.07;;;1.10;99.90;;;;;;4979260;28;20149;-36
2021/12/09 08:53:29;;;;;;;36.20;14.90;;;1.10;99.90;;;;;;4985601;28;20105;-37
2021/12/09 08:55:58;;;;;;;34.65;15.35;;;1.20;99.90;;;;;;4983243;28;20038;-37
2021/12/09 08:58:25;;;;;;;34.03;15.15;;;1.20;99.90;;;;;;5002563;28;20481;-35
2021/12/09 09:00:54;;;;;;;35.38;14.88;;;1.20;99.90;;;;;;4991823;28;20461;-39
2021/12/09 09:03:21;;;;;;;35.28;14.85;;;1.30;99.90;;;;;;4994952;28;20058;-36
2021/12/09 09:05:48;;;;;;;26.90;13.75;;;1.30;99.90;;;;;;4991986;28;20132;-38
2021/12/09 09:08:15;;;;;;;26.77;13.85;;;1.30;99.90;;;;;;4993272;28;20137;-37
2021/12/09 09:10:42;;;;;;;30.73;13.80;;;1.40;99.90;;;;;;4995220;28;20077;-36
2021/12/09 09:13:11;;;;;;;31.17;13.95;;;1.40;99.90;;;;;;5012457;28;20407;-36
2021/12/09 09:15:38;;;;;;;27.88;12.93;;;1.40;99.90;;;;;;5007808;28;20041;-36
2021/12/09 09:18:05;;;;;;;34.15;14.43;;;1.50;99.90;;;;;;5013461;28;20133;-38
2021/12/09 09:20:34;;;;;;;26.10;13.45;;;1.50;99.90;;;;;;4987403;28;20085;-38
2021/12/09 09:23:01;;;;;;;26.50;13.25;;;1.50;99.90;;;;;;4985758;28;20050;-37
2021/12/09 09:25:29;;;;;;;29.98;14.23;;;1.60;99.90;;;;;;4972502;28;20108;-37
2021/12/09 09:27:57;;;;;;;27.00;13.48;;;1.60;99.90;;;;;;5008796;28;20049;-37
2021/12/09 09:30:27;;;;;;;31.30;12.75;;;1.70;99.90;;;;;;5011015;28;20133;-37
2021/12/09 09:32:55;;;;;;;24.52;13.13;;;1.70;99.90;;;;;;4991100;28;21089;-37
2021/12/09 09:35:22;;;;;;;25.65;11.90;;;1.80;99.90;;;;;;5012131;28;20100;-39
2021/12/09 09:37:49;;;;;;;29.33;13.73;;;1.80;99.90;;;;;;4993419;28;20049;-38
2021/12/09 09:40:17;;;;;;;28.95;13.52;;;1.90;99.90;;;;;;4991497;28;20046;-37
2021/12/09 09:43:00;;;;;;;32.55;12.90;;;1.90;99.90;;;;;;5011792;28;20041;-36
2021/12/09 09:45:29;;;;;;;24.33;12.00;;;2.00;99.90;;;;;;4994860;28;20054;-35
2021/12/09 09:47:56;;;;;;;23.63;11.63;;;2.00;99.90;;;;;;5011969;28;20123;-37
2021/12/09 09:50:23;;;;;;;27.83;12.07;;;2.10;99.90;;;;;;4984802;28;20137;-38
2021/12/09 09:52:50;;;;;;;23.63;11.35;;;2.20;99.90;;;;;;4991754;28;20081;-35
2021/12/09 09:55:21;;;;;;;24.20;10.20;;;2.20;99.90;;;;;;4986930;28;20058;-35
2021/12/09 09:57:49;;;;;;;24.73;11.02;;;2.30;99.90;;;;;;4993385;28;20050;-35
2021/12/09 10:00:17;;;;;;;23.90;11.23;;;2.30;99.90;;;;;;5012989;28;20132;-37
2021/12/09 10:02:51;;;;;;;21.65;11.23;;;2.40;99.90;;;;;;4994612;28;20453;-42
2021/12/09 10:05:22;;;;;;;24.58;11.00;;;2.40;99.90;;;;;;4992136;28;20058;-35
2021/12/09 10:07:50;;;;;;;24.38;10.80;;;2.50;99.90;;;;;;4988980;28;20181;-36
2021/12/09 10:10:17;;;;;;;21.50;9.98;;;2.50;99.90;;;;;;5010610;28;20046;-36
2021/12/09 10:12:58;;;;;;;26.45;9.88;;;2.50;99.90;;;;;;4988923;28;20132;-37
2021/12/09 10:15:39;;;;;;;19.92;9.68;;;2.60;99.90;;;;;;5005333;28;20417;-38
2021/12/09 10:18:08;;;;;;;24.85;10.43;;;2.60;99.90;;;;;;5012472;28;20575;-36
2021/12/09 10:20:47;;;;;;;21.38;9.48;;;2.60;99.90;;;;;;5010447;28;20132;-37
2021/12/09 10:23:28;;;;;;;27.27;10.40;;;2.70;99.90;;;;;;5011225;28;20058;-37
2021/12/09 10:26:11;;;;;;;21.52;10.30;;;2.70;99.90;;;;;;4994789;28;20103;-43
2021/12/09 10:28:40;;;;;;;22.67;10.07;;;2.70;99.90;;;;;;4992291;28;20112;-37
2021/12/09 10:31:12;;;;;;;21.58;9.35;;;2.70;99.90;;;;;;5011100;28;20085;-37
2021/12/09 10:34:12;;;;;;;;;;;2.70;99.90;;;;;;5011704;28;20490;-37
2021/12/09 10:36:49;;;;;;;22.45;10.13;;;2.70;99.90;;;;;;4912072;29;19934;-38
2021/12/09 10:39:19;;;;;;;22.52;9.82;;;2.70;99.90;;;;;;4992286;28;20050;-39
2021/12/09 10:41:46;;;;;;;18.35;9.95;;;2.70;99.90;;;;;;5002790;28;20112;-37
2021/12/09 10:44:13;;;;;;;22.23;9.45;;;2.80;99.90;;;;;;5011764;28;20049;-40
2021/12/09 10:46:50;;;;;;;24.30;9.82;;;2.80;99.90;;;;;;5010448;28;20050;-37
2021/12/09 10:49:18;;;;;;;24.70;10.52;;;2.70;99.90;;;;;;5010551;28;20414;-40
2021/12/09 10:51:56;;;;;;;23.88;9.90;;;2.70;99.90;;;;;;5004576;28;20056;-36
2021/12/09 10:54:36;;;;;;;25.75;10.70;;;2.70;99.90;;;;;;5009476;28;20145;-39
2021/12/09 10:57:23;;;;;;;29.10;10.90;;;2.80;99.90;;;;;;4982626;28;20046;-37
2021/12/09 10:59:50;;;;;;;23.80;10.70;;;2.80;99.90;;;;;;4993807;28;20487;-37
2021/12/09 11:02:17;;;;;;;24.02;11.27;;;2.80;99.90;;;;;;5010363;28;20046;-37
2021/12/09 11:05:00;;;;;;;34.78;11.73;;;2.80;99.90;;;;;;4992331;28;20057;-37
2021/12/09 11:07:31;;;;;;;25.90;11.30;;;2.80;99.90;;;;;;5001292;28;20062;-36
2021/12/09 11:10:19;;;;;;;29.67;11.13;;;2.80;99.90;;;;;;4993374;28;20053;-36
2021/12/09 11:12:50;;;;;;;24.90;11.70;;;2.90;99.90;;;;;;4990058;28;20446;-42
2021/12/09 11:15:19;;;;;;;30.02;12.15;;;2.90;99.90;;;;;;4990203;28;20119;-36
2021/12/09 11:17:50;;;;;;;28.35;12.00;;;2.90;99.90;;;;;;5010808;28;20045;-37
2021/12/09 11:20:41;;;;;;;32.63;12.25;;;2.90;99.90;;;;;;5002463;28;20058;-37
2021/12/09 11:23:28;;;;;;;29.88;11.65;;;3.00;99.90;;;;;;5009296;28;20081;-37
2021/12/09 11:25:58;;;;;;;20.23;9.93;;;3.00;99.90;;;;;;5009554;28;20058;-36
2021/12/09 11:28:27;;;;;;;25.05;10.43;;;3.00;99.90;;;;;;4993301;28;20457;-37
2021/12/09 11:31:07;;;;;;;26.73;10.23;;;3.10;99.90;;;;;;4990761;28;20053;-36
2021/12/09 11:33:38;;;;;;;29.25;13.20;;;3.10;99.90;;;;;;4992883;28;20565;-37
2021/12/09 11:36:07;;;;;;;24.33;11.68;;;3.10;99.90;;;;;;5008401;28;20049;-38
2021/12/09 11:38:52;;;;;;;30.13;11.77;;;3.20;99.90;;;;;;4997101;28;20050;-38
2021/12/09 11:41:30;;;;;;;26.20;12.43;;;3.10;99.90;;;;;;5016145;28;20089;-37
2021/12/09 11:43:57;;;;;;;29.65;11.68;;;3.20;99.90;;;;;;5010606;28;20060;-38
2021/12/09 11:46:24;;;;;;;24.08;12.13;;;3.20;99.90;;;;;;4985165;28;20077;-39
2021/12/09 11:48:51;;;;;;;32.05;12.68;;;3.20;99.90;;;;;;5014622;28;20390;-36
2021/12/09 11:51:18;;;;;;;31.65;12.70;;;3.20;99.90;;;;;;4995725;28;20060;-36
2021/12/09 11:53:53;;;;;;;30.58;12.57;;;3.20;99.90;;;;;;5009105;28;20062;-36
2021/12/09 11:56:30;;;;;;;30.55;13.48;;;3.20;99.90;;;;;;4998011;28;20050;-37
2021/12/09 12:07:19;;;;;;;26.60;13.13;;;3.20;99.90;;;;;;5015955;28;20050;-37
2021/12/09 12:12:51;;;;;;;35.38;15.40;;;3.20;99.90;;;;;;4987796;28;20061;-38
2021/12/09 12:18:31;;;;;;;30.60;14.52;;;3.30;99.90;;;;;;5000979;28;20065;-38
2021/12/09 12:21:11;;;;;;;30.85;14.70;;;3.30;99.90;;;;;;4997270;28;20112;-37
2021/12/09 12:23:47;;;;;;;29.55;13.52;;;3.30;99.90;;;;;;5015398;28;20124;-37
2021/12/09 12:26:51;;;;;;;30.02;14.55;;;3.30;99.90;;;;;;4997807;28;20062;-38
2021/12/09 12:29:38;;;;;;;38.15;16.20;;;3.30;99.90;;;;;;4990686;28;20054;-38
2021/12/09 12:32:34;;;;;;;31.70;13.95;;;3.30;99.90;;;;;;5015350;28;20517;-38
2021/12/09 12:35:27;;;;;;;31.88;14.70;;;3.40;99.90;;;;;;4996727;28;20050;-39
2021/12/09 12:38:02;;;;;;;39.40;14.90;;;3.30;99.90;;;;;;5007786;28;20054;-38
2021/12/09 12:40:34;;;;;;;36.63;15.98;;;3.30;99.90;;;;;;5012852;28;20061;-38
2021/12/09 12:43:05;;;;;;;36.97;15.48;;;3.40;99.90;;;;;;5004850;28;20035;-37
2021/12/09 12:45:44;;;;;;;32.58;14.90;;;3.40;99.90;;;;;;5003298;28;20058;-38
2021/12/09 12:48:59;;;;;;;31.42;15.15;;;3.40;99.90;;;;;;5012877;28;20556;-38
2021/12/09 12:51:29;;;;;;;31.45;14.88;;;3.50;99.90;;;;;;5008094;28;20058;-39
2021/12/09 12:53:58;;;;;;;38.95;15.93;;;3.40;99.90;;;;;;5014589;28;20049;-38
2021/12/09 12:56:26;;;;;;;36.78;16.52;;;3.40;99.90;;;;;;5015252;28;20125;-39
2021/12/09 12:59:21;;;;;;;39.92;17.50;;;3.50;99.90;;;;;;5014964;28;20045;-37
2021/12/09 13:05:06;;;;;;;39.00;16.33;;;3.50;99.90;;;;;;5010930;28;20141;-37
2021/12/09 13:07:44;;;;;;;39.80;16.98;;;3.50;99.90;;;;;;5014928;28;20080;-37
2021/12/09 13:10:30;;;;;;;40.45;18.13;;;3.50;99.90;;;;;;5013053;28;20054;-38